sensor_id;sensor_type;location;lat;lon;timestamp;temperature;humidity
23143;DHT22;11740;51.168;4.112;2022-11-18T00:01:11;8.10;1.00
23143;DHT22;11740;51.168;4.112;2022-11-18T00:03:39;8.10;1.00
23143;DHT22;11740;51.168;4.112;2022-11-18T00:06:08;8.10;1.00
23143;DHT22;11740;51.168;4.112;2022-11-18T00:08:40;8.10;1.00
23143;DHT22;11740;51.168;4.112;2022-11-18T00:11:07;8.10;1.00
23143;DHT22;11740;51.168;4.112;2022-11-18T00:13:36;8.10;96.90
23143;DHT22;11740;51.168;4.112;2022-11-18T00:16:22;8.10;99.90
23143;DHT22;11740;51.168;4.112;2022-11-18T00:18:49;8.10;84.90
23143;DHT22;11740;51.168;4.112;2022-11-18T00:21:16;8.00;1.00
23143;DHT22;11740;51.168;4.112;2022-11-18T00:23:43;8.10;99.90
23143;DHT22;11740;51.168;4.112;2022-11-18T00:26:10;8.10;99.90
23143;DHT22;11740;51.168;4.112;2022-11-18T00:28:38;8.10;99.90
23143;DHT22;11740;51.168;4.112;2022-11-18T00:31:07;8.10;99.90
23143;DHT22;11740;51.168;4.112;2022-11-18T00:33:39;8.10;99.90
23143;DHT22;11740;51.168;4.112;2022-11-18T00:36:07;8.10;99.90
23143;DHT22;11740;51.168;4.112;2022-11-18T00:38:36;8.00;99.90
23143;DHT22;11740;51.168;4.112;2022-11-18T00:41:08;8.00;99.90
23143;DHT22;11740;51.168;4.112;2022-11-18T00:43:39;8.00;99.90
23143;DHT22;11740;51.168;4.112;2022-11-18T00:46:07;8.00;99.90
23143;DHT22;11740;51.168;4.112;2022-11-18T00:48:35;8.00;99.90
23143;DHT22;11740;51.168;4.112;2022-11-18T00:51:10;7.90;39.30
23143;DHT22;11740;51.168;4.112;2022-11-18T00:53:42;7.90;99.90
23143;DHT22;11740;51.168;4.112;2022-11-18T00:56:10;7.90;1.00
23143;DHT22;11740;51.168;4.112;2022-11-18T00:58:36;7.90;99.90
23143;DHT22;11740;51.168;4.112;2022-11-18T01:01:04;7.90;99.90
23143;DHT22;11740;51.168;4.112;2022-11-18T01:03:31;7.90;99.90
23143;DHT22;11740;51.168;4.112;2022-11-18T01:05:58;7.80;99.90
23143;DHT22;11740;51.168;4.112;2022-11-18T01:08:25;7.80;57.80
23143;DHT22;11740;51.168;4.112;2022-11-18T01:10:51;7.80;18.00
23143;DHT22;11740;51.168;4.112;2022-11-18T01:13:19;7.80;99.90
23143;DHT22;11740;51.168;4.112;2022-11-18T01:15:52;7.80;99.90
23143;DHT22;11740;51.168;4.112;2022-11-18T01:18:24;7.80;99.90
23143;DHT22;11740;51.168;4.112;2022-11-18T01:20:53;7.80;99.90
23143;DHT22;11740;51.168;4.112;2022-11-18T01:23:19;7.80;99.90
23143;DHT22;11740;51.168;4.112;2022-11-18T01:25:47;7.70;99.90
23143;DHT22;11740;51.168;4.112;2022-11-18T01:28:15;7.80;99.90
23143;DHT22;11740;51.168;4.112;2022-11-18T01:30:49;7.80;99.90
23143;DHT22;11740;51.168;4.112;2022-11-18T01:33:16;7.70;99.90
23143;DHT22;11740;51.168;4.112;2022-11-18T01:35:43;7.70;99.90
23143;DHT22;11740;51.168;4.112;2022-11-18T01:38:10;7.70;99.90
23143;DHT22;11740;51.168;4.112;2022-11-18T01:40:39;7.70;99.90
23143;DHT22;11740;51.168;4.112;2022-11-18T01:43:14;7.70;99.90
23143;DHT22;11740;51.168;4.112;2022-11-18T01:45:43;7.70;99.90
23143;DHT22;11740;51.168;4.112;2022-11-18T01:51:04;7.60;99.90
23143;DHT22;11740;51.168;4.112;2022-11-18T01:53:34;7.70;1.00
23143;DHT22;11740;51.168;4.112;2022-11-18T01:56:04;7.70;1.00
23143;DHT22;11740;51.168;4.112;2022-11-18T01:58:38;7.60;1.00
23143;DHT22;11740;51.168;4.112;2022-11-18T02:01:07;7.60;99.90
23143;DHT22;11740;51.168;4.112;2022-11-18T02:03:34;7.60;99.90
23143;DHT22;11740;51.168;4.112;2022-11-18T02:06:02;7.60;99.90
23143;DHT22;11740;51.168;4.112;2022-11-18T02:08:29;7.50;99.90
23143;DHT22;11740;51.168;4.112;2022-11-18T02:10:57;7.50;99.90
23143;DHT22;11740;51.168;4.112;2022-11-18T02:13:24;7.50;99.90
23143;DHT22;11740;51.168;4.112;2022-11-18T02:18:52;7.50;99.90
23143;DHT22;11740;51.168;4.112;2022-11-18T02:25:20;7.40;99.90
23143;DHT22;11740;51.168;4.112;2022-11-18T02:30:49;7.40;99.90
23143;DHT22;11740;51.168;4.112;2022-11-18T02:33:22;7.30;99.90
23143;DHT22;11740;51.168;4.112;2022-11-18T02:36:12;7.30;99.90
23143;DHT22;11740;51.168;4.112;2022-11-18T02:38:44;7.30;99.90
23143;DHT22;11740;51.168;4.112;2022-11-18T02:41:15;7.30;99.90
23143;DHT22;11740;51.168;4.112;2022-11-18T02:43:50;7.20;99.90
23143;DHT22;11740;51.168;4.112;2022-11-18T02:46:20;7.20;99.90
23143;DHT22;11740;51.168;4.112;2022-11-18T02:48:50;7.20;99.90
23143;DHT22;11740;51.168;4.112;2022-11-18T02:51:18;7.20;99.90
23143;DHT22;11740;51.168;4.112;2022-11-18T02:53:48;7.20;99.90
23143;DHT22;11740;51.168;4.112;2022-11-18T02:56:16;7.20;99.90
23143;DHT22;11740;51.168;4.112;2022-11-18T02:58:43;7.20;99.90
23143;DHT22;11740;51.168;4.112;2022-11-18T03:01:17;7.20;99.90
23143;DHT22;11740;51.168;4.112;2022-11-18T03:03:46;7.20;99.90
23143;DHT22;11740;51.168;4.112;2022-11-18T03:06:21;7.20;99.90
23143;DHT22;11740;51.168;4.112;2022-11-18T03:20:21;7.10;1.00
23143;DHT22;11740;51.168;4.112;2022-11-18T03:26:05;7.00;1.00
23143;DHT22;11740;51.168;4.112;2022-11-18T03:31:11;7.00;1.00
23143;DHT22;11740;51.168;4.112;2022-11-18T03:33:42;7.00;99.90
23143;DHT22;11740;51.168;4.112;2022-11-18T03:36:13;7.00;99.90
23143;DHT22;11740;51.168;4.112;2022-11-18T03:38:43;7.00;1.00
23143;DHT22;11740;51.168;4.112;2022-11-18T03:41:13;7.00;1.00
23143;DHT22;11740;51.168;4.112;2022-11-18T03:43:45;7.00;1.00
23143;DHT22;11740;51.168;4.112;2022-11-18T03:46:22;7.00;1.00
23143;DHT22;11740;51.168;4.112;2022-11-18T03:48:57;6.90;1.00
23143;DHT22;11740;51.168;4.112;2022-11-18T03:51:29;6.90;1.00
23143;DHT22;11740;51.168;4.112;2022-11-18T03:54:00;7.00;1.00
23143;DHT22;11740;51.168;4.112;2022-11-18T03:56:32;7.00;3.70
23143;DHT22;11740;51.168;4.112;2022-11-18T03:59:08;7.00;1.00
23143;DHT22;11740;51.168;4.112;2022-11-18T04:04:08;7.00;34.80
23143;DHT22;11740;51.168;4.112;2022-11-18T04:06:37;6.90;1.00
23143;DHT22;11740;51.168;4.112;2022-11-18T04:09:09;7.00;99.90
23143;DHT22;11740;51.168;4.112;2022-11-18T04:11:42;6.90;99.90
23143;DHT22;11740;51.168;4.112;2022-11-18T04:14:39;6.90;99.90
23143;DHT22;11740;51.168;4.112;2022-11-18T04:17:08;6.90;99.90
23143;DHT22;11740;51.168;4.112;2022-11-18T04:19:39;6.90;99.90
23143;DHT22;11740;51.168;4.112;2022-11-18T04:22:07;6.90;99.90
23143;DHT22;11740;51.168;4.112;2022-11-18T04:24:34;6.90;99.90
23143;DHT22;11740;51.168;4.112;2022-11-18T04:27:01;6.90;99.90
23143;DHT22;11740;51.168;4.112;2022-11-18T04:29:29;6.80;74.70
23143;DHT22;11740;51.168;4.112;2022-11-18T04:31:57;6.90;99.90
23143;DHT22;11740;51.168;4.112;2022-11-18T04:34:25;6.90;99.90
23143;DHT22;11740;51.168;4.112;2022-11-18T04:36:52;6.90;99.90
23143;DHT22;11740;51.168;4.112;2022-11-18T04:39:19;6.90;99.90
23143;DHT22;11740;51.168;4.112;2022-11-18T04:41:46;6.90;99.90
23143;DHT22;11740;51.168;4.112;2022-11-18T04:44:26;6.80;99.90
23143;DHT22;11740;51.168;4.112;2022-11-18T04:46:55;6.80;99.90
23143;DHT22;11740;51.168;4.112;2022-11-18T04:49:23;6.80;99.90
23143;DHT22;11740;51.168;4.112;2022-11-18T04:51:50;6.80;99.90
23143;DHT22;11740;51.168;4.112;2022-11-18T04:54:18;6.80;99.90
23143;DHT22;11740;51.168;4.112;2022-11-18T04:56:46;6.80;99.90
23143;DHT22;11740;51.168;4.112;2022-11-18T04:59:22;6.80;99.90
23143;DHT22;11740;51.168;4.112;2022-11-18T05:01:51;6.80;99.90
23143;DHT22;11740;51.168;4.112;2022-11-18T05:04:25;6.80;99.90
23143;DHT22;11740;51.168;4.112;2022-11-18T05:06:56;6.80;99.90
23143;DHT22;11740;51.168;4.112;2022-11-18T05:09:23;6.80;99.90
23143;DHT22;11740;51.168;4.112;2022-11-18T05:11:57;6.80;99.90
23143;DHT22;11740;51.168;4.112;2022-11-18T05:14:42;6.80;99.90
23143;DHT22;11740;51.168;4.112;2022-11-18T05:17:15;6.80;99.90
23143;DHT22;11740;51.168;4.112;2022-11-18T05:19:42;6.80;99.90
23143;DHT22;11740;51.168;4.112;2022-11-18T05:22:09;6.80;99.90
23143;DHT22;11740;51.168;4.112;2022-11-18T05:24:36;6.80;99.90
23143;DHT22;11740;51.168;4.112;2022-11-18T05:27:02;6.80;99.90
23143;DHT22;11740;51.168;4.112;2022-11-18T05:29:29;6.70;99.90
23143;DHT22;11740;51.168;4.112;2022-11-18T05:31:56;6.80;99.90
23143;DHT22;11740;51.168;4.112;2022-11-18T05:34:23;6.80;99.90
23143;DHT22;11740;51.168;4.112;2022-11-18T05:36:50;6.80;99.90
23143;DHT22;11740;51.168;4.112;2022-11-18T05:39:17;6.80;99.90
23143;DHT22;11740;51.168;4.112;2022-11-18T05:41:44;6.80;1.00
23143;DHT22;11740;51.168;4.112;2022-11-18T05:44:30;6.80;99.90
23143;DHT22;11740;51.168;4.112;2022-11-18T05:46:57;6.80;1.00
23143;DHT22;11740;51.168;4.112;2022-11-18T05:49:24;6.80;99.90
23143;DHT22;11740;51.168;4.112;2022-11-18T05:51:51;6.80;1.00
23143;DHT22;11740;51.168;4.112;2022-11-18T05:54:18;6.80;99.90
23143;DHT22;11740;51.168;4.112;2022-11-18T05:56:45;6.80;99.90
23143;DHT22;11740;51.168;4.112;2022-11-18T05:59:12;6.80;99.90
23143;DHT22;11740;51.168;4.112;2022-11-18T06:09:36;6.90;1.00
23143;DHT22;11740;51.168;4.112;2022-11-18T06:12:05;6.90;1.00
23143;DHT22;11740;51.168;4.112;2022-11-18T06:14:37;6.90;1.00
23143;DHT22;11740;51.168;4.112;2022-11-18T06:17:09;6.90;1.00
23143;DHT22;11740;51.168;4.112;2022-11-18T06:19:39;7.00;1.00
23143;DHT22;11740;51.168;4.112;2022-11-18T06:22:06;6.90;1.00
23143;DHT22;11740;51.168;4.112;2022-11-18T06:24:34;6.90;1.00
23143;DHT22;11740;51.168;4.112;2022-11-18T06:27:00;6.90;99.90
23143;DHT22;11740;51.168;4.112;2022-11-18T06:29:28;6.90;99.90
23143;DHT22;11740;51.168;4.112;2022-11-18T06:31:56;6.90;1.00
23143;DHT22;11740;51.168;4.112;2022-11-18T06:34:23;6.90;99.90
23143;DHT22;11740;51.168;4.112;2022-11-18T06:36:50;6.90;99.90
23143;DHT22;11740;51.168;4.112;2022-11-18T06:39:17;6.90;99.90
23143;DHT22;11740;51.168;4.112;2022-11-18T06:41:45;6.90;99.90
23143;DHT22;11740;51.168;4.112;2022-11-18T06:44:12;6.80;99.90
23143;DHT22;11740;51.168;4.112;2022-11-18T06:46:39;6.80;99.90
23143;DHT22;11740;51.168;4.112;2022-11-18T06:49:21;6.90;99.90
23143;DHT22;11740;51.168;4.112;2022-11-18T06:51:49;6.80;99.90
23143;DHT22;11740;51.168;4.112;2022-11-18T06:54:16;6.80;99.90
23143;DHT22;11740;51.168;4.112;2022-11-18T06:56:43;6.80;99.90
23143;DHT22;11740;51.168;4.112;2022-11-18T06:59:10;6.80;99.90
23143;DHT22;11740;51.168;4.112;2022-11-18T07:01:38;6.80;99.90
23143;DHT22;11740;51.168;4.112;2022-11-18T07:04:06;6.90;99.90
23143;DHT22;11740;51.168;4.112;2022-11-18T07:06:34;6.80;99.90
23143;DHT22;11740;51.168;4.112;2022-11-18T07:09:05;6.80;99.90
23143;DHT22;11740;51.168;4.112;2022-11-18T07:11:33;6.90;99.90
23143;DHT22;11740;51.168;4.112;2022-11-18T07:14:00;6.80;99.90
23143;DHT22;11740;51.168;4.112;2022-11-18T07:16:27;6.80;99.90
23143;DHT22;11740;51.168;4.112;2022-11-18T07:18:56;6.80;99.90
23143;DHT22;11740;51.168;4.112;2022-11-18T07:21:23;6.90;99.90
23143;DHT22;11740;51.168;4.112;2022-11-18T07:23:52;6.90;99.90
23143;DHT22;11740;51.168;4.112;2022-11-18T07:26:19;6.90;99.90
23143;DHT22;11740;51.168;4.112;2022-11-18T07:28:48;7.00;1.00
23143;DHT22;11740;51.168;4.112;2022-11-18T07:31:16;7.00;1.00
23143;DHT22;11740;51.168;4.112;2022-11-18T07:33:45;6.90;99.90
23143;DHT22;11740;51.168;4.112;2022-11-18T07:36:13;7.00;1.00
23143;DHT22;11740;51.168;4.112;2022-11-18T07:38:44;7.00;1.00
23143;DHT22;11740;51.168;4.112;2022-11-18T07:41:13;7.10;1.00
23143;DHT22;11740;51.168;4.112;2022-11-18T07:43:41;7.00;1.00
23143;DHT22;11740;51.168;4.112;2022-11-18T07:46:13;7.00;1.00
23143;DHT22;11740;51.168;4.112;2022-11-18T07:48:42;7.00;99.90
23143;DHT22;11740;51.168;4.112;2022-11-18T07:51:10;7.10;1.00
23143;DHT22;11740;51.168;4.112;2022-11-18T07:53:38;7.10;1.00
23143;DHT22;11740;51.168;4.112;2022-11-18T07:56:05;7.10;1.00
23143;DHT22;11740;51.168;4.112;2022-11-18T07:58:33;7.20;1.00
23143;DHT22;11740;51.168;4.112;2022-11-18T08:01:14;7.10;1.00
23143;DHT22;11740;51.168;4.112;2022-11-18T08:03:43;7.10;1.00
23143;DHT22;11740;51.168;4.112;2022-11-18T08:06:11;7.20;1.00
23143;DHT22;11740;51.168;4.112;2022-11-18T08:08:40;7.20;1.00
23143;DHT22;11740;51.168;4.112;2022-11-18T08:11:08;7.10;1.00
23143;DHT22;11740;51.168;4.112;2022-11-18T08:13:37;7.20;1.00
23143;DHT22;11740;51.168;4.112;2022-11-18T08:16:04;7.20;99.90
23143;DHT22;11740;51.168;4.112;2022-11-18T08:18:38;7.20;1.00
23143;DHT22;11740;51.168;4.112;2022-11-18T08:21:05;7.30;1.00
23143;DHT22;11740;51.168;4.112;2022-11-18T08:23:32;7.20;1.00
23143;DHT22;11740;51.168;4.112;2022-11-18T08:26:08;7.30;1.00
23143;DHT22;11740;51.168;4.112;2022-11-18T08:28:37;7.30;1.00
23143;DHT22;11740;51.168;4.112;2022-11-18T08:31:08;7.30;1.00
23143;DHT22;11740;51.168;4.112;2022-11-18T08:33:39;7.30;1.00
23143;DHT22;11740;51.168;4.112;2022-11-18T08:36:07;7.30;1.00
23143;DHT22;11740;51.168;4.112;2022-11-18T08:38:34;7.40;1.00
23143;DHT22;11740;51.168;4.112;2022-11-18T08:41:01;7.40;1.00
23143;DHT22;11740;51.168;4.112;2022-11-18T08:43:28;7.40;1.00
23143;DHT22;11740;51.168;4.112;2022-11-18T08:45:55;7.40;1.00
23143;DHT22;11740;51.168;4.112;2022-11-18T08:48:22;7.40;99.90
23143;DHT22;11740;51.168;4.112;2022-11-18T08:50:49;7.40;99.90
23143;DHT22;11740;51.168;4.112;2022-11-18T08:53:17;7.40;99.90
23143;DHT22;11740;51.168;4.112;2022-11-18T08:55:44;7.50;1.00
23143;DHT22;11740;51.168;4.112;2022-11-18T08:58:11;7.50;99.90
23143;DHT22;11740;51.168;4.112;2022-11-18T09:00:37;7.50;99.90
23143;DHT22;11740;51.168;4.112;2022-11-18T09:03:04;7.50;99.90
23143;DHT22;11740;51.168;4.112;2022-11-18T09:05:31;7.60;99.90
23143;DHT22;11740;51.168;4.112;2022-11-18T09:07:58;7.60;99.90
23143;DHT22;11740;51.168;4.112;2022-11-18T09:10:24;7.60;99.90
23143;DHT22;11740;51.168;4.112;2022-11-18T09:12:51;7.70;1.00
23143;DHT22;11740;51.168;4.112;2022-11-18T09:15:20;7.70;99.90
23143;DHT22;11740;51.168;4.112;2022-11-18T09:17:49;7.70;99.90
23143;DHT22;11740;51.168;4.112;2022-11-18T09:20:16;7.70;99.90
23143;DHT22;11740;51.168;4.112;2022-11-18T09:22:43;7.80;99.90
23143;DHT22;11740;51.168;4.112;2022-11-18T09:25:10;7.70;99.90
23143;DHT22;11740;51.168;4.112;2022-11-18T09:27:37;7.80;99.90
23143;DHT22;11740;51.168;4.112;2022-11-18T09:30:04;7.80;99.90
23143;DHT22;11740;51.168;4.112;2022-11-18T09:32:31;7.80;99.90
23143;DHT22;11740;51.168;4.112;2022-11-18T09:35:01;7.80;99.90
23143;DHT22;11740;51.168;4.112;2022-11-18T09:37:27;7.80;99.90
23143;DHT22;11740;51.168;4.112;2022-11-18T09:39:54;7.80;99.90
23143;DHT22;11740;51.168;4.112;2022-11-18T09:47:43;7.90;99.90
23143;DHT22;11740;51.168;4.112;2022-11-18T09:55:43;7.90;99.90
23143;DHT22;11740;51.168;4.112;2022-11-18T09:58:14;8.00;99.90
23143;DHT22;11740;51.168;4.112;2022-11-18T10:00:44;8.00;99.90
23143;DHT22;11740;51.168;4.112;2022-11-18T10:03:13;8.00;99.90
23143;DHT22;11740;51.168;4.112;2022-11-18T10:05:51;8.00;99.90
23143;DHT22;11740;51.168;4.112;2022-11-18T10:08:38;8.00;99.90
23143;DHT22;11740;51.168;4.112;2022-11-18T10:19:17;8.20;99.90
23143;DHT22;11740;51.168;4.112;2022-11-18T10:24:19;8.30;99.90
23143;DHT22;11740;51.168;4.112;2022-11-18T10:26:54;8.20;99.90
23143;DHT22;11740;51.168;4.112;2022-11-18T10:29:22;8.30;1.00
23143;DHT22;11740;51.168;4.112;2022-11-18T10:32:00;8.20;1.00
23143;DHT22;11740;51.168;4.112;2022-11-18T10:34:30;8.30;1.00
23143;DHT22;11740;51.168;4.112;2022-11-18T10:37:12;8.30;1.00
23143;DHT22;11740;51.168;4.112;2022-11-18T10:40:14;8.30;1.00
23143;DHT22;11740;51.168;4.112;2022-11-18T10:42:49;8.30;1.00
23143;DHT22;11740;51.168;4.112;2022-11-18T10:45:23;8.30;1.00
23143;DHT22;11740;51.168;4.112;2022-11-18T10:47:56;8.30;1.00
23143;DHT22;11740;51.168;4.112;2022-11-18T10:50:30;8.30;1.00
23143;DHT22;11740;51.168;4.112;2022-11-18T10:52:58;8.30;1.00
23143;DHT22;11740;51.168;4.112;2022-11-18T10:55:25;8.40;1.00
23143;DHT22;11740;51.168;4.112;2022-11-18T10:58:14;8.40;1.00
23143;DHT22;11740;51.168;4.112;2022-11-18T11:00:47;8.40;1.00
23143;DHT22;11740;51.168;4.112;2022-11-18T11:05:45;8.50;3.00
23143;DHT22;11740;51.168;4.112;2022-11-18T11:08:18;8.50;31.30
23143;DHT22;11740;51.168;4.112;2022-11-18T11:11:02;8.50;15.00
23143;DHT22;11740;51.168;4.112;2022-11-18T11:13:29;8.50;40.10
23143;DHT22;11740;51.168;4.112;2022-11-18T11:15:59;8.50;79.30
23143;DHT22;11740;51.168;4.112;2022-11-18T11:18:32;8.60;99.90
23143;DHT22;11740;51.168;4.112;2022-11-18T11:21:10;8.60;99.90
23143;DHT22;11740;51.168;4.112;2022-11-18T11:23:40;8.60;99.90
23143;DHT22;11740;51.168;4.112;2022-11-18T11:32:08;8.70;99.90
23143;DHT22;11740;51.168;4.112;2022-11-18T11:37:20;8.70;99.90
23143;DHT22;11740;51.168;4.112;2022-11-18T11:42:31;8.70;99.90
23143;DHT22;11740;51.168;4.112;2022-11-18T11:48:15;8.90;99.90
23143;DHT22;11740;51.168;4.112;2022-11-18T11:50:48;8.80;99.90
23143;DHT22;11740;51.168;4.112;2022-11-18T11:56:13;8.90;99.90
23143;DHT22;11740;51.168;4.112;2022-11-18T12:01:33;9.00;99.90
23143;DHT22;11740;51.168;4.112;2022-11-18T12:06:40;9.10;99.90
23143;DHT22;11740;51.168;4.112;2022-11-18T12:14:25;9.10;99.90
23143;DHT22;11740;51.168;4.112;2022-11-18T12:19:35;9.20;99.90
23143;DHT22;11740;51.168;4.112;2022-11-18T12:22:03;9.20;99.90
23143;DHT22;11740;51.168;4.112;2022-11-18T12:24:38;9.20;99.90
23143;DHT22;11740;51.168;4.112;2022-11-18T12:27:11;9.30;99.90
23143;DHT22;11740;51.168;4.112;2022-11-18T12:29:51;9.30;99.90
23143;DHT22;11740;51.168;4.112;2022-11-18T12:35:00;9.30;99.90
23143;DHT22;11740;51.168;4.112;2022-11-18T12:42:33;9.30;99.90
23143;DHT22;11740;51.168;4.112;2022-11-18T12:50:56;9.30;99.90
23143;DHT22;11740;51.168;4.112;2022-11-18T12:53:39;9.30;99.90
23143;DHT22;11740;51.168;4.112;2022-11-18T12:58:44;9.30;67.20
23143;DHT22;11740;51.168;4.112;2022-11-18T13:01:16;9.30;83.80
23143;DHT22;11740;51.168;4.112;2022-11-18T13:03:44;9.30;99.90
23143;DHT22;11740;51.168;4.112;2022-11-18T13:06:24;9.30;99.90
23143;DHT22;11740;51.168;4.112;2022-11-18T13:09:03;9.30;88.90
23143;DHT22;11740;51.168;4.112;2022-11-18T13:11:32;9.30;87.90
23143;DHT22;11740;51.168;4.112;2022-11-18T13:14:15;9.30;85.80
23143;DHT22;11740;51.168;4.112;2022-11-18T13:17:21;9.30;89.00
23143;DHT22;11740;51.168;4.112;2022-11-18T13:22:54;9.30;99.90
23143;DHT22;11740;51.168;4.112;2022-11-18T13:25:40;9.30;87.90
23143;DHT22;11740;51.168;4.112;2022-11-18T13:28:17;9.30;88.00
23143;DHT22;11740;51.168;4.112;2022-11-18T13:31:06;9.40;99.90
23143;DHT22;11740;51.168;4.112;2022-11-18T13:33:35;9.40;65.50
23143;DHT22;11740;51.168;4.112;2022-11-18T13:36:10;9.30;71.10
23143;DHT22;11740;51.168;4.112;2022-11-18T13:38:53;9.40;87.40
23143;DHT22;11740;51.168;4.112;2022-11-18T13:41:26;9.40;76.00
23143;DHT22;11740;51.168;4.112;2022-11-18T13:44:10;9.40;58.70
23143;DHT22;11740;51.168;4.112;2022-11-18T13:46:40;9.40;26.00
23143;DHT22;11740;51.168;4.112;2022-11-18T13:49:10;9.40;30.70
23143;DHT22;11740;51.168;4.112;2022-11-18T13:51:43;9.40;50.60
23143;DHT22;11740;51.168;4.112;2022-11-18T13:54:10;9.40;34.30
23143;DHT22;11740;51.168;4.112;2022-11-18T13:56:43;9.40;31.20
23143;DHT22;11740;51.168;4.112;2022-11-18T13:59:14;9.40;15.00
23143;DHT22;11740;51.168;4.112;2022-11-18T14:01:44;9.40;27.90
23143;DHT22;11740;51.168;4.112;2022-11-18T14:04:17;9.50;36.60
23143;DHT22;11740;51.168;4.112;2022-11-18T14:06:45;9.50;42.50
23143;DHT22;11740;51.168;4.112;2022-11-18T14:11:43;9.50;99.90
23143;DHT22;11740;51.168;4.112;2022-11-18T14:14:26;9.50;99.90
23143;DHT22;11740;51.168;4.112;2022-11-18T14:19:53;9.50;99.90
23143;DHT22;11740;51.168;4.112;2022-11-18T14:24:59;9.60;99.90
23143;DHT22;11740;51.168;4.112;2022-11-18T14:30:41;9.60;99.90
23143;DHT22;11740;51.168;4.112;2022-11-18T14:33:16;9.60;99.90
23143;DHT22;11740;51.168;4.112;2022-11-18T14:35:53;9.60;99.90
23143;DHT22;11740;51.168;4.112;2022-11-18T14:38:30;9.60;99.90
23143;DHT22;11740;51.168;4.112;2022-11-18T14:41:23;9.60;99.90
23143;DHT22;11740;51.168;4.112;2022-11-18T14:44:10;9.60;99.90
23143;DHT22;11740;51.168;4.112;2022-11-18T14:46:39;9.70;99.90
23143;DHT22;11740;51.168;4.112;2022-11-18T14:49:15;9.70;99.90
23143;DHT22;11740;51.168;4.112;2022-11-18T14:51:44;9.70;99.90
23143;DHT22;11740;51.168;4.112;2022-11-18T14:54:11;9.70;99.90
23143;DHT22;11740;51.168;4.112;2022-11-18T14:56:40;9.70;99.90
23143;DHT22;11740;51.168;4.112;2022-11-18T14:59:14;9.70;99.90
23143;DHT22;11740;51.168;4.112;2022-11-18T15:01:42;9.70;99.90
23143;DHT22;11740;51.168;4.112;2022-11-18T15:04:11;9.70;99.90
23143;DHT22;11740;51.168;4.112;2022-11-18T15:06:39;9.70;99.90
23143;DHT22;11740;51.168;4.112;2022-11-18T15:09:06;9.70;99.90
23143;DHT22;11740;51.168;4.112;2022-11-18T15:11:33;9.80;99.90
23143;DHT22;11740;51.168;4.112;2022-11-18T15:14:01;9.80;99.90
23143;DHT22;11740;51.168;4.112;2022-11-18T15:16:29;9.80;99.90
23143;DHT22;11740;51.168;4.112;2022-11-18T15:18:58;9.80;99.90
23143;DHT22;11740;51.168;4.112;2022-11-18T15:21:26;9.80;99.90
23143;DHT22;11740;51.168;4.112;2022-11-18T15:23:53;9.80;99.90
23143;DHT22;11740;51.168;4.112;2022-11-18T15:26:21;9.80;99.90
23143;DHT22;11740;51.168;4.112;2022-11-18T15:28:54;9.80;99.90
23143;DHT22;11740;51.168;4.112;2022-11-18T15:31:22;9.80;99.90
23143;DHT22;11740;51.168;4.112;2022-11-18T15:33:49;9.80;99.90
23143;DHT22;11740;51.168;4.112;2022-11-18T15:36:20;9.80;99.90
23143;DHT22;11740;51.168;4.112;2022-11-18T15:38:49;9.80;99.90
23143;DHT22;11740;51.168;4.112;2022-11-18T15:41:20;9.80;99.90
23143;DHT22;11740;51.168;4.112;2022-11-18T15:43:48;9.80;99.90
23143;DHT22;11740;51.168;4.112;2022-11-18T15:46:16;9.80;99.90
23143;DHT22;11740;51.168;4.112;2022-11-18T15:48:47;9.80;99.90
23143;DHT22;11740;51.168;4.112;2022-11-18T15:51:16;9.80;99.90
23143;DHT22;11740;51.168;4.112;2022-11-18T15:53:43;9.80;99.90
23143;DHT22;11740;51.168;4.112;2022-11-18T15:56:31;9.80;99.90
23143;DHT22;11740;51.168;4.112;2022-11-18T15:59:02;9.80;99.90
23143;DHT22;11740;51.168;4.112;2022-11-18T16:01:38;9.80;99.90
23143;DHT22;11740;51.168;4.112;2022-11-18T16:04:09;9.80;99.90
23143;DHT22;11740;51.168;4.112;2022-11-18T16:06:37;9.80;99.90
23143;DHT22;11740;51.168;4.112;2022-11-18T16:09:04;9.80;99.90
23143;DHT22;11740;51.168;4.112;2022-11-18T16:11:31;9.80;99.90
23143;DHT22;11740;51.168;4.112;2022-11-18T16:14:18;9.80;99.90
23143;DHT22;11740;51.168;4.112;2022-11-18T16:16:46;9.80;99.90
23143;DHT22;11740;51.168;4.112;2022-11-18T16:19:14;9.80;99.90
23143;DHT22;11740;51.168;4.112;2022-11-18T16:21:44;9.80;99.90
23143;DHT22;11740;51.168;4.112;2022-11-18T16:24:14;9.70;99.90
23143;DHT22;11740;51.168;4.112;2022-11-18T16:26:43;9.70;99.90
23143;DHT22;11740;51.168;4.112;2022-11-18T16:29:10;9.70;99.90
23143;DHT22;11740;51.168;4.112;2022-11-18T16:31:38;9.70;99.90
23143;DHT22;11740;51.168;4.112;2022-11-18T16:36:46;9.60;99.90
23143;DHT22;11740;51.168;4.112;2022-11-18T16:39:18;9.70;99.90
23143;DHT22;11740;51.168;4.112;2022-11-18T16:41:49;9.60;99.90
23143;DHT22;11740;51.168;4.112;2022-11-18T16:44:16;9.60;99.90
23143;DHT22;11740;51.168;4.112;2022-11-18T16:46:45;9.60;99.90
23143;DHT22;11740;51.168;4.112;2022-11-18T16:49:14;9.60;99.90
23143;DHT22;11740;51.168;4.112;2022-11-18T16:51:44;9.60;99.90
23143;DHT22;11740;51.168;4.112;2022-11-18T16:54:15;9.60;99.90
23143;DHT22;11740;51.168;4.112;2022-11-18T16:56:44;9.60;99.90
23143;DHT22;11740;51.168;4.112;2022-11-18T16:59:13;9.60;99.90
23143;DHT22;11740;51.168;4.112;2022-11-18T17:01:43;9.60;99.90
23143;DHT22;11740;51.168;4.112;2022-11-18T17:04:10;9.60;88.80
23143;DHT22;11740;51.168;4.112;2022-11-18T17:06:37;9.60;99.90
23143;DHT22;11740;51.168;4.112;2022-11-18T17:09:04;9.60;99.90
23143;DHT22;11740;51.168;4.112;2022-11-18T17:11:32;9.70;99.90
23143;DHT22;11740;51.168;4.112;2022-11-18T17:13:59;9.70;99.90
23143;DHT22;11740;51.168;4.112;2022-11-18T17:16:26;9.70;99.90
23143;DHT22;11740;51.168;4.112;2022-11-18T17:18:57;9.70;99.90
23143;DHT22;11740;51.168;4.112;2022-11-18T17:21:26;9.70;99.90
23143;DHT22;11740;51.168;4.112;2022-11-18T17:23:53;9.70;99.90
23143;DHT22;11740;51.168;4.112;2022-11-18T17:26:22;9.60;99.90
23143;DHT22;11740;51.168;4.112;2022-11-18T17:28:51;9.70;99.90
23143;DHT22;11740;51.168;4.112;2022-11-18T17:31:18;9.70;99.90
23143;DHT22;11740;51.168;4.112;2022-11-18T17:33:47;9.70;99.90
23143;DHT22;11740;51.168;4.112;2022-11-18T17:36:18;9.70;99.90
23143;DHT22;11740;51.168;4.112;2022-11-18T17:38:47;9.60;99.90
23143;DHT22;11740;51.168;4.112;2022-11-18T17:41:16;9.70;99.90
23143;DHT22;11740;51.168;4.112;2022-11-18T17:44:04;9.60;99.90
23143;DHT22;11740;51.168;4.112;2022-11-18T17:46:32;9.60;99.90
23143;DHT22;11740;51.168;4.112;2022-11-18T17:49:04;9.60;99.90
23143;DHT22;11740;51.168;4.112;2022-11-18T17:51:33;9.60;99.90
23143;DHT22;11740;51.168;4.112;2022-11-18T17:54:00;9.60;99.90
23143;DHT22;11740;51.168;4.112;2022-11-18T17:56:26;9.60;99.90
23143;DHT22;11740;51.168;4.112;2022-11-18T17:58:53;9.60;99.90
23143;DHT22;11740;51.168;4.112;2022-11-18T18:01:21;9.60;99.90
23143;DHT22;11740;51.168;4.112;2022-11-18T18:03:48;9.60;99.90
23143;DHT22;11740;51.168;4.112;2022-11-18T18:06:15;9.60;99.90
23143;DHT22;11740;51.168;4.112;2022-11-18T18:08:42;9.60;99.90
23143;DHT22;11740;51.168;4.112;2022-11-18T18:11:10;9.60;99.90
23143;DHT22;11740;51.168;4.112;2022-11-18T18:13:39;9.60;99.90
23143;DHT22;11740;51.168;4.112;2022-11-18T18:16:25;9.60;99.90
23143;DHT22;11740;51.168;4.112;2022-11-18T18:18:53;9.60;99.90